Wetterdaten: Woche 01.10.12 - 07.10.12 (KW40)
Datum Zeit Temperatur Luftfeuchte Luftdruck Niederschlag Windrichtung Sonnenschein Solar Wind
01.10.2012 00:00 10,7 C 97 % 1017,6 hPa 0,0 l/m N 0,00 h 0 W/m 2,4 km/h (1 Bft)
01.10.2012 01:00 10,7 C 97 % 1017,6 hPa 0,0 l/m N 0,00 h 0 W/m 1,5 km/h (1 Bft)
01.10.2012 02:00 10,7 C 97 % 1017,2 hPa 0,0 l/m N 0,00 h 0 W/m 1,1 km/h (0 Bft)
01.10.2012 03:00 10,7 C 97 % 1017,0 hPa 0,0 l/m N 0,00 h 0 W/m 2,7 km/h (1 Bft)
01.10.2012 04:00 10,6 C 97 % 1017,0 hPa 0,0 l/m N 0,00 h 0 W/m 0,9 km/h (0 Bft)
01.10.2012 05:00 10,6 C 97 % 1017,0 hPa 0,0 l/m N 0,00 h 0 W/m 0,3 km/h (0 Bft)
01.10.2012 06:00 10,6 C 97 % 1017,0 hPa 0,0 l/m N 0,00 h 0 W/m 0,5 km/h (0 Bft)
01.10.2012 07:00 10,4 C 97 % 1016,8 hPa 0,0 l/m N 0,00 h 9 W/m 0,3 km/h (0 Bft)
01.10.2012 08:00 10,5 C 98 % 1017,1 hPa 0,0 l/m N 0,00 h 21 W/m 2,0 km/h (1 Bft)
01.10.2012 09:00 10,9 C 98 % 1017,3 hPa 0,0 l/m O-NO 0,00 h 47 W/m 3,1 km/h (1 Bft)
01.10.2012 10:00 11,5 C 97 % 1017,5 hPa 0,0 l/m O-NO 0,00 h 80 W/m 3,1 km/h (1 Bft)
01.10.2012 11:00 12,2 C 92 % 1017,3 hPa 0,0 l/m W-NW 0,00 h 116 W/m 7,4 km/h (2 Bft)
01.10.2012 12:00 12,6 C 89 % 1017,1 hPa 0,0 l/m W 0,00 h 147 W/m 7,4 km/h (2 Bft)
01.10.2012 13:00 13,0 C 85 % 1016,9 hPa 0,2 l/m W-NW 0,00 h 112 W/m 9,0 km/h (2 Bft)
01.10.2012 14:00 13,4 C 83 % 1016,8 hPa 0,0 l/m W-NW 0,00 h 128 W/m 8,4 km/h (2 Bft)
01.10.2012 15:00 13,8 C 80 % 1016,8 hPa 0,0 l/m W 0,00 h 124 W/m 9,1 km/h (2 Bft)
01.10.2012 16:00 13,8 C 81 % 1016,8 hPa 0,0 l/m W-NW 0,00 h 74 W/m 5,2 km/h (1 Bft)
01.10.2012 17:00 13,5 C 84 % 1016,7 hPa 0,0 l/m N 0,00 h 41 W/m 3,3 km/h (1 Bft)
01.10.2012 18:00 13,3 C 85 % 1016,9 hPa 0,0 l/m N 0,08 h 12 W/m 2,0 km/h (1 Bft)
01.10.2012 19:00 12,8 C 87 % 1017,3 hPa 0,0 l/m N 0,00 h 0 W/m 0,4 km/h (0 Bft)
01.10.2012 20:00 12,0 C 90 % 1017,5 hPa 0,0 l/m N 0,00 h 0 W/m 0,0 km/h (0 Bft)
01.10.2012 21:00 11,3 C 91 % 1017,8 hPa 0,0 l/m N 0,00 h 0 W/m 0,0 km/h (0 Bft)
01.10.2012 22:00 10,3 C 91 % 1018,2 hPa 0,0 l/m N 0,00 h 0 W/m 0,0 km/h (0 Bft)
01.10.2012 23:00 9,5 C 92 % 1018,3 hPa 0,0 l/m N 0,00 h 0 W/m 0,0 km/h (0 Bft)
02.10.2012 00:00 9,0 C 93 % 1018,3 hPa 0,0 l/m N 0,00 h 0 W/m 0,0 km/h (0 Bft)
02.10.2012 01:00 8,6 C 93 % 1018,0 hPa 0,0 l/m N 0,00 h 0 W/m 0,1 km/h (0 Bft)
02.10.2012 02:00 7,9 C 94 % 1018,1 hPa 0,0 l/m N 0,00 h 0 W/m 0,0 km/h (0 Bft)
02.10.2012 03:00 7,3 C 94 % 1018,4 hPa 0,0 l/m N 0,00 h 0 W/m 0,0 km/h (0 Bft)
02.10.2012 04:00 7,2 C 95 % 1018,5 hPa 0,0 l/m N 0,00 h 0 W/m 0,5 km/h (0 Bft)
02.10.2012 05:00 6,9 C 96 % 1018,6 hPa 0,0 l/m N 0,00 h 0 W/m 0,1 km/h (0 Bft)
02.10.2012 06:00 7,0 C 96 % 1018,8 hPa 0,0 l/m N 0,00 h 0 W/m 0,5 km/h (0 Bft)
02.10.2012 07:00 7,3 C 97 % 1019,2 hPa 0,0 l/m N 0,00 h 14 W/m 0,8 km/h (0 Bft)
02.10.2012 08:00 7,9 C 98 % 1019,3 hPa 0,0 l/m N 0,00 h 74 W/m 0,5 km/h (0 Bft)
02.10.2012 09:00 9,6 C 99 % 1019,3 hPa 0,0 l/m W-NW 0,67 h 204 W/m 2,4 km/h (1 Bft)
02.10.2012 10:00 11,7 C 95 % 1019,4 hPa 0,0 l/m S-SW 0,92 h 405 W/m 10,9 km/h (2 Bft)
02.10.2012 11:00 14,0 C 79 % 1019,2 hPa 0,0 l/m SW 1,00 h 571 W/m 13,7 km/h (3 Bft)
02.10.2012 12:00 15,1 C 65 % 1018,8 hPa 0,0 l/m W-SW 1,00 h 599 W/m 18,8 km/h (3 Bft)
02.10.2012 13:00 15,4 C 62 % 1018,5 hPa 0,0 l/m W-SW 1,00 h 463 W/m 19,2 km/h (3 Bft)
02.10.2012 14:00 15,5 C 63 % 1018,0 hPa 0,0 l/m W-SW 0,75 h 401 W/m 15,7 km/h (3 Bft)
02.10.2012 15:00 15,6 C 62 % 1017,8 hPa 0,0 l/m W-SW 0,75 h 419 W/m 13,4 km/h (3 Bft)
02.10.2012 16:00 15,8 C 61 % 1017,6 hPa 0,0 l/m W-SW 0,83 h 398 W/m 11,7 km/h (2 Bft)
02.10.2012 17:00 15,3 C 62 % 1017,4 hPa 0,0 l/m W-SW 1,00 h 224 W/m 8,0 km/h (2 Bft)
02.10.2012 18:00 14,1 C 72 % 1017,3 hPa 0,0 l/m N 0,25 h 30 W/m 1,7 km/h (1 Bft)
02.10.2012 19:00 12,1 C 79 % 1017,4 hPa 0,0 l/m N 0,00 h 0 W/m 0,0 km/h (0 Bft)
02.10.2012 20:00 10,1 C 84 % 1017,6 hPa 0,0 l/m N 0,00 h 0 W/m 0,0 km/h (0 Bft)
02.10.2012 21:00 8,8 C 88 % 1018,0 hPa 0,0 l/m N 0,00 h 0 W/m 0,0 km/h (0 Bft)
02.10.2012 22:00 7,9 C 89 % 1018,4 hPa 0,0 l/m N 0,00 h 0 W/m 0,0 km/h (0 Bft)
02.10.2012 23:00 7,2 C 91 % 1018,4 hPa 0,0 l/m N 0,00 h 0 W/m 0,1 km/h (0 Bft)
03.10.2012 00:00 6,8 C 92 % 1018,2 hPa 0,0 l/m N 0,00 h 0 W/m 0,1 km/h (0 Bft)
03.10.2012 01:00 6,5 C 93 % 1018,1 hPa 0,0 l/m N 0,00 h 0 W/m 0,9 km/h (0 Bft)
03.10.2012 02:00 6,4 C 94 % 1017,9 hPa 0,0 l/m N 0,00 h 0 W/m 0,1 km/h (0 Bft)
03.10.2012 03:00 6,1 C 94 % 1017,6 hPa 0,0 l/m N 0,00 h 0 W/m 0,0 km/h (0 Bft)
03.10.2012 04:00 5,8 C 95 % 1017,6 hPa 0,0 l/m N 0,00 h 0 W/m 1,2 km/h (1 Bft)
03.10.2012 05:00 6,2 C 96 % 1017,5 hPa 0,0 l/m N 0,00 h 0 W/m 1,2 km/h (1 Bft)
03.10.2012 06:00 7,0 C 97 % 1017,3 hPa 0,0 l/m W-SW 0,00 h 0 W/m 2,8 km/h (1 Bft)
03.10.2012 07:00 8,1 C 97 % 1017,2 hPa 0,0 l/m W-SW 0,08 h 15 W/m 3,7 km/h (1 Bft)
03.10.2012 08:00 8,3 C 97 % 1017,2 hPa 0,0 l/m W-SW 0,25 h 84 W/m 3,6 km/h (1 Bft)
03.10.2012 09:00 10,8 C 95 % 1017,0 hPa 0,2 l/m SW 0,83 h 265 W/m 7,2 km/h (2 Bft)
03.10.2012 10:00 14,0 C 83 % 1017,0 hPa 0,0 l/m SW 0,83 h 337 W/m 14,1 km/h (3 Bft)
03.10.2012 11:00 15,9 C 76 % 1016,7 hPa 0,0 l/m S-SW 0,67 h 398 W/m 15,2 km/h (3 Bft)
03.10.2012 12:00 16,3 C 72 % 1016,9 hPa 0,0 l/m W 0,08 h 254 W/m 16,9 km/h (3 Bft)
03.10.2012 13:00 16,6 C 70 % 1016,7 hPa 0,0 l/m W 0,17 h 360 W/m 19,3 km/h (3 Bft)
03.10.2012 14:00 17,4 C 68 % 1016,3 hPa 0,0 l/m W-SW 0,92 h 596 W/m 26,3 km/h (4 Bft)
03.10.2012 15:00 17,4 C 67 % 1015,8 hPa 0,0 l/m W-SW 0,92 h 457 W/m 24,1 km/h (4 Bft)
03.10.2012 16:00 16,7 C 69 % 1015,6 hPa 0,0 l/m W-SW 1,00 h 349 W/m 17,4 km/h (3 Bft)
03.10.2012 17:00 16,1 C 72 % 1015,3 hPa 0,0 l/m W-SW 0,83 h 171 W/m 12,2 km/h (2 Bft)
03.10.2012 18:00 14,7 C 78 % 1015,5 hPa 0,0 l/m W-SW 0,08 h 18 W/m 5,5 km/h (1 Bft)
03.10.2012 19:00 13,5 C 82 % 1015,4 hPa 0,0 l/m W-SW 0,00 h 0 W/m 5,1 km/h (1 Bft)
03.10.2012 20:00 12,4 C 87 % 1015,9 hPa 0,0 l/m W-SW 0,00 h 0 W/m 6,9 km/h (2 Bft)
03.10.2012 21:00 11,8 C 88 % 1015,9 hPa 0,0 l/m W-SW 0,00 h 0 W/m 3,1 km/h (1 Bft)
03.10.2012 22:00 10,7 C 88 % 1015,8 hPa 0,0 l/m N 0,00 h 0 W/m 1,2 km/h (1 Bft)
03.10.2012 23:00 9,7 C 91 % 1015,6 hPa 0,0 l/m W-SW 0,00 h 0 W/m 3,6 km/h (1 Bft)
04.10.2012 00:00 9,6 C 93 % 1015,1 hPa 0,0 l/m W-SW 0,00 h 0 W/m 4,0 km/h (1 Bft)
04.10.2012 01:00 9,4 C 94 % 1014,6 hPa 0,0 l/m W-SW 0,00 h 0 W/m 2,4 km/h (1 Bft)
04.10.2012 02:00 9,7 C 96 % 1014,5 hPa 0,0 l/m W-SW 0,00 h 0 W/m 7,1 km/h (2 Bft)
04.10.2012 03:00 10,5 C 96 % 1014,0 hPa 0,0 l/m W-SW 0,00 h 0 W/m 7,4 km/h (2 Bft)
04.10.2012 04:00 10,6 C 96 % 1013,8 hPa 0,0 l/m SW 0,00 h 0 W/m 9,8 km/h (2 Bft)
04.10.2012 05:00 11,2 C 96 % 1013,5 hPa 0,0 l/m SW 0,00 h 0 W/m 7,8 km/h (2 Bft)
04.10.2012 06:00 11,2 C 95 % 1012,8 hPa 0,0 l/m SW 0,00 h 0 W/m 4,0 km/h (1 Bft)
04.10.2012 07:00 10,5 C 94 % 1012,2 hPa 0,2 l/m SW 0,00 h 14 W/m 4,3 km/h (1 Bft)
04.10.2012 08:00 10,6 C 95 % 1012,1 hPa 0,0 l/m SW 0,08 h 71 W/m 7,5 km/h (2 Bft)
04.10.2012 09:00 12,7 C 94 % 1012,0 hPa 0,0 l/m S-SW 0,25 h 154 W/m 12,1 km/h (2 Bft)
04.10.2012 10:00 13,7 C 89 % 1011,9 hPa 0,0 l/m SW 0,00 h 92 W/m 12,2 km/h (2 Bft)
04.10.2012 11:00 14,7 C 83 % 1011,4 hPa 0,0 l/m SW 0,00 h 137 W/m 15,3 km/h (3 Bft)
04.10.2012 12:00 15,0 C 78 % 1011,4 hPa 0,0 l/m W-SW 0,00 h 57 W/m 28,4 km/h (4 Bft)
04.10.2012 13:00 15,0 C 78 % 1011,4 hPa 0,0 l/m W-SW 0,00 h 114 W/m 32,9 km/h (5 Bft)
04.10.2012 14:00 15,2 C 79 % 1011,4 hPa 0,0 l/m W-SW 0,00 h 132 W/m 32,2 km/h (5 Bft)
04.10.2012 15:00 15,3 C 79 % 1011,4 hPa 0,0 l/m SW 0,00 h 116 W/m 29,7 km/h (5 Bft)
04.10.2012 16:00 15,0 C 80 % 1012,0 hPa 0,0 l/m W-SW 0,00 h 70 W/m 29,5 km/h (5 Bft)
04.10.2012 17:00 14,6 C 81 % 1013,2 hPa 0,0 l/m SW 0,00 h 42 W/m 32,7 km/h (5 Bft)
04.10.2012 18:00 13,8 C 82 % 1014,6 hPa 0,8 l/m W-NW 0,00 h 13 W/m 24,3 km/h (4 Bft)
04.10.2012 19:00 11,7 C 90 % 1016,0 hPa 0,6 l/m W-NW 0,00 h 0 W/m 7,4 km/h (2 Bft)
04.10.2012 20:00 10,8 C 92 % 1016,8 hPa 0,0 l/m N 0,00 h 0 W/m 1,5 km/h (1 Bft)
04.10.2012 21:00 9,8 C 93 % 1017,5 hPa 0,0 l/m N 0,00 h 0 W/m 1,9 km/h (1 Bft)
04.10.2012 22:00 9,3 C 94 % 1018,0 hPa 0,0 l/m N 0,00 h 0 W/m 1,2 km/h (1 Bft)
04.10.2012 23:00 8,7 C 94 % 1018,3 hPa 0,2 l/m N 0,00 h 0 W/m 0,0 km/h (0 Bft)
05.10.2012 00:00 8,1 C 94 % 1018,2 hPa 0,0 l/m N 0,00 h 0 W/m 0,7 km/h (0 Bft)
05.10.2012 01:00 8,1 C 95 % 1018,3 hPa 0,0 l/m N 0,00 h 0 W/m 0,9 km/h (0 Bft)
05.10.2012 02:00 7,6 C 95 % 1017,9 hPa 0,0 l/m N 0,00 h 0 W/m 0,3 km/h (0 Bft)
05.10.2012 03:00 7,4 C 96 % 1017,5 hPa 0,0 l/m N 0,00 h 0 W/m 0,0 km/h (0 Bft)
05.10.2012 04:00 7,4 C 96 % 1017,1 hPa 0,0 l/m N 0,00 h 0 W/m 0,7 km/h (0 Bft)
05.10.2012 05:00 7,4 C 97 % 1016,7 hPa 0,0 l/m N 0,00 h 0 W/m 0,9 km/h (0 Bft)
05.10.2012 06:00 7,7 C 97 % 1016,6 hPa 0,0 l/m N 0,00 h 0 W/m 0,1 km/h (0 Bft)
05.10.2012 07:00 8,3 C 98 % 1016,5 hPa 0,0 l/m W-NW 0,00 h 11 W/m 5,5 km/h (1 Bft)
05.10.2012 08:00 10,4 C 99 % 1016,5 hPa 0,0 l/m W-SW 0,00 h 66 W/m 16,5 km/h (3 Bft)
05.10.2012 09:00 11,7 C 98 % 1016,9 hPa 0,0 l/m SW 0,67 h 186 W/m 17,4 km/h (3 Bft)
05.10.2012 10:00 12,9 C 97 % 1017,0 hPa 0,0 l/m SW 1,00 h 370 W/m 14,1 km/h (3 Bft)
05.10.2012 11:00 15,5 C 86 % 1016,9 hPa 0,0 l/m W-SW 1,00 h 498 W/m 20,6 km/h (4 Bft)
05.10.2012 12:00 16,6 C 77 % 1016,7 hPa 0,0 l/m W 1,00 h 503 W/m 26,3 km/h (4 Bft)
05.10.2012 13:00 17,4 C 75 % 1016,4 hPa 0,0 l/m W-SW 0,67 h 453 W/m 23,7 km/h (4 Bft)
05.10.2012 14:00 18,0 C 73 % 1016,1 hPa 0,0 l/m SW 1,00 h 481 W/m 22,2 km/h (4 Bft)
05.10.2012 15:00 18,6 C 70 % 1015,2 hPa 0,0 l/m SW 1,00 h 457 W/m 25,1 km/h (4 Bft)
05.10.2012 16:00 18,6 C 69 % 1014,9 hPa 0,0 l/m W-SW 1,00 h 333 W/m 25,2 km/h (4 Bft)
05.10.2012 17:00 17,8 C 72 % 1015,1 hPa 0,0 l/m W-SW 0,75 h 162 W/m 20,4 km/h (4 Bft)
05.10.2012 18:00 16,5 C 77 % 1015,3 hPa 0,0 l/m W-SW 0,33 h 29 W/m 14,5 km/h (3 Bft)
05.10.2012 19:00 15,5 C 81 % 1015,6 hPa 0,0 l/m SW 0,00 h 5 W/m 10,2 km/h (2 Bft)
05.10.2012 20:00 14,4 C 84 % 1015,8 hPa 0,0 l/m W-SW 0,00 h 0 W/m 7,6 km/h (2 Bft)
05.10.2012 21:00 13,9 C 89 % 1016,3 hPa 0,0 l/m SW 0,00 h 0 W/m 11,6 km/h (2 Bft)
05.10.2012 22:00 13,7 C 89 % 1016,6 hPa 0,0 l/m SW 0,00 h 0 W/m 7,8 km/h (2 Bft)
05.10.2012 23:00 13,1 C 90 % 1016,7 hPa 0,0 l/m W-SW 0,00 h 0 W/m 6,7 km/h (2 Bft)
06.10.2012 00:00 12,3 C 92 % 1016,8 hPa 0,0 l/m SW 0,00 h 0 W/m 4,4 km/h (1 Bft)
06.10.2012 01:00 11,7 C 93 % 1016,6 hPa 0,0 l/m SW 0,00 h 0 W/m 7,1 km/h (2 Bft)
06.10.2012 02:00 11,7 C 94 % 1016,4 hPa 0,0 l/m W-SW 0,00 h 0 W/m 7,8 km/h (2 Bft)
06.10.2012 03:00 11,1 C 92 % 1016,1 hPa 0,0 l/m SW 0,00 h 0 W/m 5,8 km/h (1 Bft)
06.10.2012 04:00 10,1 C 93 % 1015,8 hPa 0,2 l/m N 0,00 h 0 W/m 2,0 km/h (1 Bft)
06.10.2012 05:00 9,2 C 93 % 1015,6 hPa 0,0 l/m N 0,00 h 0 W/m 0,0 km/h (0 Bft)
06.10.2012 06:00 8,3 C 93 % 1015,4 hPa 0,0 l/m N 0,00 h 0 W/m 0,0 km/h (0 Bft)
06.10.2012 07:00 7,7 C 93 % 1015,2 hPa 0,0 l/m SW 0,00 h 10 W/m 2,5 km/h (1 Bft)
06.10.2012 08:00 8,3 C 96 % 1015,3 hPa 0,0 l/m SW 0,08 h 72 W/m 9,4 km/h (2 Bft)
06.10.2012 09:00 10,3 C 98 % 1015,3 hPa 0,0 l/m SW 1,00 h 237 W/m 13,3 km/h (3 Bft)
06.10.2012 10:00 13,4 C 96 % 1015,4 hPa 0,0 l/m S-SW 1,00 h 381 W/m 14,8 km/h (3 Bft)
06.10.2012 11:00 17,0 C 73 % 1015,1 hPa 0,0 l/m W-SW 0,92 h 459 W/m 25,6 km/h (4 Bft)
06.10.2012 12:00 18,7 C 61 % 1015,0 hPa 0,0 l/m W-SW 0,33 h 334 W/m 33,3 km/h (5 Bft)
06.10.2012 13:00 19,6 C 60 % 1014,6 hPa 0,0 l/m W-SW 0,75 h 508 W/m 28,7 km/h (4 Bft)
06.10.2012 14:00 21,0 C 57 % 1014,2 hPa 0,0 l/m W-SW 1,00 h 516 W/m 29,4 km/h (5 Bft)
06.10.2012 15:00 20,2 C 56 % 1014,3 hPa 0,0 l/m W-SW 0,00 h 158 W/m 22,9 km/h (4 Bft)
06.10.2012 16:00 19,1 C 61 % 1014,4 hPa 0,0 l/m W-SW 0,00 h 83 W/m 16,2 km/h (3 Bft)
06.10.2012 17:00 18,0 C 68 % 1014,6 hPa 0,0 l/m SW 0,00 h 43 W/m 9,1 km/h (2 Bft)
06.10.2012 18:00 16,8 C 75 % 1014,4 hPa 0,0 l/m SW 0,00 h 14 W/m 5,9 km/h (2 Bft)
06.10.2012 19:00 16,0 C 78 % 1014,5 hPa 0,0 l/m SW 0,00 h 0 W/m 5,3 km/h (1 Bft)
06.10.2012 20:00 15,5 C 80 % 1014,2 hPa 0,0 l/m N 0,00 h 0 W/m 1,1 km/h (0 Bft)
06.10.2012 21:00 14,9 C 83 % 1014,5 hPa 0,0 l/m N 0,00 h 0 W/m 0,7 km/h (0 Bft)
06.10.2012 22:00 14,3 C 86 % 1014,4 hPa 0,0 l/m SW 0,00 h 0 W/m 2,1 km/h (1 Bft)
06.10.2012 23:00 14,4 C 80 % 1014,4 hPa 0,0 l/m SW 0,00 h 0 W/m 3,2 km/h (1 Bft)
07.10.2012 00:00 14,2 C 84 % 1014,4 hPa 0,0 l/m N 0,00 h 0 W/m 0,4 km/h (0 Bft)
07.10.2012 01:00 13,5 C 88 % 1014,2 hPa 0,4 l/m N 0,00 h 0 W/m 0,5 km/h (0 Bft)
07.10.2012 02:00 13,0 C 92 % 1014,1 hPa 2,4 l/m W-NW 0,00 h 0 W/m 4,8 km/h (1 Bft)
07.10.2012 03:00 12,6 C 94 % 1013,3 hPa 0,8 l/m SW 0,00 h 0 W/m 6,7 km/h (2 Bft)
07.10.2012 04:00 12,4 C 95 % 1012,5 hPa 0,4 l/m SW 0,00 h 0 W/m 9,0 km/h (2 Bft)
07.10.2012 05:00 12,5 C 96 % 1011,9 hPa 0,2 l/m SW 0,00 h 0 W/m 10,1 km/h (2 Bft)
07.10.2012 06:00 12,8 C 97 % 1011,3 hPa 0,2 l/m W-SW 0,00 h 0 W/m 19,9 km/h (4 Bft)
07.10.2012 07:00 13,2 C 97 % 1011,0 hPa 0,0 l/m W-SW 0,00 h 0 W/m 24,8 km/h (4 Bft)
07.10.2012 08:00 13,4 C 96 % 1011,1 hPa 0,6 l/m W-SW 0,00 h 9 W/m 22,1 km/h (4 Bft)
07.10.2012 09:00 13,5 C 97 % 1011,4 hPa 0,2 l/m W-SW 0,00 h 49 W/m 20,5 km/h (4 Bft)
07.10.2012 10:00 14,0 C 96 % 1012,0 hPa 0,0 l/m W-SW 0,00 h 99 W/m 16,5 km/h (3 Bft)
07.10.2012 11:00 14,7 C 93 % 1012,4 hPa 0,0 l/m W-SW 0,00 h 144 W/m 18,2 km/h (3 Bft)
07.10.2012 12:00 14,2 C 93 % 1013,2 hPa 1,2 l/m N-NW 0,00 h 82 W/m 17,2 km/h (3 Bft)
07.10.2012 13:00 11,4 C 94 % 1014,7 hPa 0,4 l/m N-NO 0,00 h 101 W/m 19,2 km/h (3 Bft)
07.10.2012 14:00 10,7 C 93 % 1015,9 hPa 0,0 l/m N-NO 0,00 h 134 W/m 16,1 km/h (3 Bft)
07.10.2012 15:00 10,6 C 89 % 1016,9 hPa 0,0 l/m N-NO 0,25 h 190 W/m 17,4 km/h (3 Bft)
07.10.2012 16:00 10,0 C 86 % 1017,9 hPa 0,0 l/m N-NO 0,00 h 72 W/m 15,0 km/h (3 Bft)
07.10.2012 17:00 9,9 C 83 % 1018,7 hPa 0,0 l/m N-NO 0,08 h 73 W/m 10,4 km/h (2 Bft)
07.10.2012 18:00 9,6 C 81 % 1019,6 hPa 0,0 l/m N 0,00 h 11 W/m 3,3 km/h (1 Bft)
07.10.2012 19:00 8,8 C 85 % 1020,2 hPa 0,0 l/m N 0,00 h 0 W/m 1,9 km/h (1 Bft)
07.10.2012 20:00 7,6 C 88 % 1020,7 hPa 0,0 l/m N 0,00 h 0 W/m 2,5 km/h (1 Bft)
07.10.2012 21:00 6,6 C 91 % 1021,2 hPa 0,0 l/m N 0,00 h 0 W/m 1,1 km/h (0 Bft)
07.10.2012 22:00 6,1 C 92 % 1021,8 hPa 0,0 l/m N 0,00 h 0 W/m 2,0 km/h (1 Bft)
07.10.2012 23:00 5,4 C 92 % 1022,0 hPa 0,0 l/m N 0,00 h 0 W/m 0,0 km/h (0 Bft)
Min-Datum _ 07.10.12 06.10.12 07.10.12 - - - - 01.10.12
_ Min-Zeit 23:55 14:45 07:25 - - - - 01:20
Minimum _ 4,9 C 53 % 1010,9 hPa - - - - 0,0 km/h (0 Bft)
Max-Datum _ 06.10.12 02.10.12 07.10.12 07.10.12 - 01.10.12 03.10.12 04.10.12
_ Max-Zeit 14:40 08:50 23:20 02:20 - 18:50 11:40 17:50
Maximum _ 21,4 C 99 % 1022,1 hPa 2,4 l/m - 0,08 h 766 W/m 53,1 km/h
W (7 Bft)
Durchschnitt _ 12,0 C 87 % 1016,2 hPa #9,2 l/m W-SW #29:05 h 195 W/m 8,8 km/h (2 Bft)